sensor_id;sensor_type;location;lat;lon;timestamp;P1;durP1;ratioP1;P2;durP2;ratioP2
18172;SDS011;9211;48.818;9.312;2023-04-06T00:01:04;14.98;;;9.70;;
18172;SDS011;9211;48.818;9.312;2023-04-06T00:03:31;19.98;;;9.63;;
18172;SDS011;9211;48.818;9.312;2023-04-06T00:05:58;17.40;;;9.80;;
18172;SDS011;9211;48.818;9.312;2023-04-06T00:08:25;16.48;;;10.02;;
18172;SDS011;9211;48.818;9.312;2023-04-06T00:10:52;16.65;;;9.40;;
18172;SDS011;9211;48.818;9.312;2023-04-06T00:13:20;20.70;;;10.43;;
18172;SDS011;9211;48.818;9.312;2023-04-06T00:15:47;18.27;;;10.27;;
18172;SDS011;9211;48.818;9.312;2023-04-06T00:18:15;15.90;;;10.20;;
18172;SDS011;9211;48.818;9.312;2023-04-06T00:20:42;18.27;;;10.27;;
18172;SDS011;9211;48.818;9.312;2023-04-06T00:23:09;18.83;;;10.02;;
18172;SDS011;9211;48.818;9.312;2023-04-06T00:25:36;16.63;;;9.75;;
18172;SDS011;9211;48.818;9.312;2023-04-06T00:28:03;16.63;;;9.75;;
18172;SDS011;9211;48.818;9.312;2023-04-06T00:30:30;20.20;;;10.50;;
18172;SDS011;9211;48.818;9.312;2023-04-06T00:32:58;17.65;;;10.05;;
18172;SDS011;9211;48.818;9.312;2023-04-06T00:35:27;18.10;;;10.10;;
18172;SDS011;9211;48.818;9.312;2023-04-06T00:37:54;16.42;;;9.80;;
18172;SDS011;9211;48.818;9.312;2023-04-06T00:40:21;17.80;;;9.77;;
18172;SDS011;9211;48.818;9.312;2023-04-06T00:42:48;21.35;;;10.15;;
18172;SDS011;9211;48.818;9.312;2023-04-06T00:45:16;19.15;;;10.07;;
18172;SDS011;9211;48.818;9.312;2023-04-06T00:47:43;18.63;;;10.10;;
18172;SDS011;9211;48.818;9.312;2023-04-06T00:50:11;16.90;;;10.52;;
18172;SDS011;9211;48.818;9.312;2023-04-06T00:52:39;16.27;;;9.97;;
18172;SDS011;9211;48.818;9.312;2023-04-06T00:55:08;17.05;;;10.00;;
18172;SDS011;9211;48.818;9.312;2023-04-06T00:57:40;15.52;;;9.60;;
18172;SDS011;9211;48.818;9.312;2023-04-06T01:00:08;14.88;;;9.85;;
18172;SDS011;9211;48.818;9.312;2023-04-06T01:02:37;15.02;;;9.50;;
18172;SDS011;9211;48.818;9.312;2023-04-06T01:05:04;18.33;;;9.85;;
18172;SDS011;9211;48.818;9.312;2023-04-06T01:07:49;15.15;;;10.02;;
18172;SDS011;9211;48.818;9.312;2023-04-06T01:10:24;13.93;;;8.93;;
18172;SDS011;9211;48.818;9.312;2023-04-06T01:13:01;15.68;;;9.27;;
18172;SDS011;9211;48.818;9.312;2023-04-06T01:15:54;18.13;;;9.60;;
18172;SDS011;9211;48.818;9.312;2023-04-06T01:18:40;13.70;;;9.02;;
18172;SDS011;9211;48.818;9.312;2023-04-06T01:21:15;16.08;;;9.10;;
18172;SDS011;9211;48.818;9.312;2023-04-06T01:23:59;15.57;;;9.70;;
18172;SDS011;9211;48.818;9.312;2023-04-06T01:26:34;18.10;;;9.60;;
18172;SDS011;9211;48.818;9.312;2023-04-06T01:29:05;18.15;;;9.90;;
18172;SDS011;9211;48.818;9.312;2023-04-06T01:31:33;17.85;;;9.70;;
18172;SDS011;9211;48.818;9.312;2023-04-06T01:34:00;17.23;;;9.13;;
18172;SDS011;9211;48.818;9.312;2023-04-06T01:36:28;17.27;;;9.77;;
18172;SDS011;9211;48.818;9.312;2023-04-06T01:39:13;15.18;;;9.60;;
18172;SDS011;9211;48.818;9.312;2023-04-06T01:41:41;16.95;;;9.50;;
18172;SDS011;9211;48.818;9.312;2023-04-06T01:44:08;15.93;;;9.65;;
18172;SDS011;9211;48.818;9.312;2023-04-06T01:46:35;15.52;;;9.25;;
18172;SDS011;9211;48.818;9.312;2023-04-06T01:49:04;15.93;;;9.73;;
18172;SDS011;9211;48.818;9.312;2023-04-06T01:51:36;17.77;;;9.48;;
18172;SDS011;9211;48.818;9.312;2023-04-06T01:54:07;17.60;;;9.60;;
18172;SDS011;9211;48.818;9.312;2023-04-06T01:56:47;16.50;;;9.70;;
18172;SDS011;9211;48.818;9.312;2023-04-06T01:59:26;13.75;;;9.27;;
18172;SDS011;9211;48.818;9.312;2023-04-06T02:01:54;16.92;;;9.40;;
18172;SDS011;9211;48.818;9.312;2023-04-06T02:04:23;16.40;;;9.40;;
18172;SDS011;9211;48.818;9.312;2023-04-06T02:06:58;15.02;;;9.85;;
18172;SDS011;9211;48.818;9.312;2023-04-06T02:09:28;15.25;;;9.60;;
18172;SDS011;9211;48.818;9.312;2023-04-06T02:11:59;16.58;;;9.70;;
18172;SDS011;9211;48.818;9.312;2023-04-06T02:14:27;16.23;;;9.80;;
18172;SDS011;9211;48.818;9.312;2023-04-06T02:16:58;13.85;;;9.27;;
18172;SDS011;9211;48.818;9.312;2023-04-06T02:19:25;15.70;;;9.70;;
18172;SDS011;9211;48.818;9.312;2023-04-06T02:21:52;15.02;;;9.65;;
18172;SDS011;9211;48.818;9.312;2023-04-06T02:24:19;16.95;;;9.52;;
18172;SDS011;9211;48.818;9.312;2023-04-06T02:26:46;15.73;;;9.75;;
18172;SDS011;9211;48.818;9.312;2023-04-06T02:29:15;15.35;;;9.50;;
18172;SDS011;9211;48.818;9.312;2023-04-06T02:31:42;17.92;;;9.30;;
18172;SDS011;9211;48.818;9.312;2023-04-06T02:34:09;16.00;;;9.80;;
18172;SDS011;9211;48.818;9.312;2023-04-06T02:36:45;17.95;;;9.75;;
18172;SDS011;9211;48.818;9.312;2023-04-06T02:39:13;15.50;;;9.52;;
18172;SDS011;9211;48.818;9.312;2023-04-06T02:41:40;15.30;;;9.77;;
18172;SDS011;9211;48.818;9.312;2023-04-06T02:44:08;15.10;;;9.57;;
18172;SDS011;9211;48.818;9.312;2023-04-06T02:46:40;17.20;;;9.50;;
18172;SDS011;9211;48.818;9.312;2023-04-06T02:49:08;15.60;;;9.65;;
18172;SDS011;9211;48.818;9.312;2023-04-06T02:51:35;16.15;;;9.63;;
18172;SDS011;9211;48.818;9.312;2023-04-06T02:54:25;15.55;;;9.88;;
18172;SDS011;9211;48.818;9.312;2023-04-06T02:57:06;16.40;;;9.75;;
18172;SDS011;9211;48.818;9.312;2023-04-06T02:59:38;18.45;;;9.68;;
18172;SDS011;9211;48.818;9.312;2023-04-06T03:02:21;15.93;;;9.38;;
18172;SDS011;9211;48.818;9.312;2023-04-06T03:04:48;18.50;;;9.65;;
18172;SDS011;9211;48.818;9.312;2023-04-06T03:07:28;16.60;;;9.57;;
18172;SDS011;9211;48.818;9.312;2023-04-06T03:09:55;16.20;;;10.07;;
18172;SDS011;9211;48.818;9.312;2023-04-06T03:12:22;17.58;;;9.93;;
18172;SDS011;9211;48.818;9.312;2023-04-06T03:15:08;16.92;;;9.82;;
18172;SDS011;9211;48.818;9.312;2023-04-06T03:17:41;17.77;;;9.60;;
18172;SDS011;9211;48.818;9.312;2023-04-06T03:20:15;18.03;;;10.33;;
18172;SDS011;9211;48.818;9.312;2023-04-06T03:22:42;14.85;;;9.35;;
18172;SDS011;9211;48.818;9.312;2023-04-06T03:25:12;17.13;;;10.20;;
18172;SDS011;9211;48.818;9.312;2023-04-06T03:27:42;16.87;;;10.27;;
18172;SDS011;9211;48.818;9.312;2023-04-06T03:30:13;16.02;;;9.82;;
18172;SDS011;9211;48.818;9.312;2023-04-06T03:32:42;17.93;;;10.03;;
18172;SDS011;9211;48.818;9.312;2023-04-06T03:35:09;15.15;;;9.80;;
18172;SDS011;9211;48.818;9.312;2023-04-06T03:37:36;19.00;;;10.47;;
18172;SDS011;9211;48.818;9.312;2023-04-06T03:40:04;15.88;;;10.30;;
18172;SDS011;9211;48.818;9.312;2023-04-06T03:42:32;14.90;;;9.70;;
18172;SDS011;9211;48.818;9.312;2023-04-06T03:45:05;17.75;;;9.90;;
18172;SDS011;9211;48.818;9.312;2023-04-06T03:47:35;16.80;;;9.50;;
18172;SDS011;9211;48.818;9.312;2023-04-06T03:50:07;16.10;;;9.88;;
18172;SDS011;9211;48.818;9.312;2023-04-06T03:52:35;14.67;;;9.30;;
18172;SDS011;9211;48.818;9.312;2023-04-06T03:55:02;15.90;;;10.02;;
18172;SDS011;9211;48.818;9.312;2023-04-06T03:57:30;17.13;;;10.52;;
18172;SDS011;9211;48.818;9.312;2023-04-06T03:59:57;16.60;;;9.90;;
18172;SDS011;9211;48.818;9.312;2023-04-06T04:02:25;18.77;;;10.68;;
18172;SDS011;9211;48.818;9.312;2023-04-06T04:04:52;17.00;;;10.07;;
18172;SDS011;9211;48.818;9.312;2023-04-06T04:07:20;18.20;;;10.85;;
18172;SDS011;9211;48.818;9.312;2023-04-06T04:09:49;17.55;;;10.15;;
18172;SDS011;9211;48.818;9.312;2023-04-06T04:12:16;18.47;;;10.63;;
18172;SDS011;9211;48.818;9.312;2023-04-06T04:14:43;17.30;;;10.38;;
18172;SDS011;9211;48.818;9.312;2023-04-06T04:17:10;17.80;;;9.88;;
18172;SDS011;9211;48.818;9.312;2023-04-06T04:19:37;20.30;;;10.30;;
18172;SDS011;9211;48.818;9.312;2023-04-06T04:22:05;17.00;;;9.93;;
18172;SDS011;9211;48.818;9.312;2023-04-06T04:24:37;17.75;;;10.43;;
18172;SDS011;9211;48.818;9.312;2023-04-06T04:27:04;15.90;;;9.80;;
18172;SDS011;9211;48.818;9.312;2023-04-06T04:29:33;17.20;;;9.88;;
18172;SDS011;9211;48.818;9.312;2023-04-06T04:32:04;17.67;;;9.77;;
18172;SDS011;9211;48.818;9.312;2023-04-06T04:34:32;18.63;;;9.60;;
18172;SDS011;9211;48.818;9.312;2023-04-06T04:37:00;19.20;;;10.55;;
18172;SDS011;9211;48.818;9.312;2023-04-06T04:39:46;18.07;;;10.43;;
18172;SDS011;9211;48.818;9.312;2023-04-06T04:42:13;19.47;;;10.40;;
18172;SDS011;9211;48.818;9.312;2023-04-06T04:44:46;18.80;;;10.88;;
18172;SDS011;9211;48.818;9.312;2023-04-06T04:47:17;20.73;;;11.32;;
18172;SDS011;9211;48.818;9.312;2023-04-06T04:49:46;18.20;;;10.60;;
18172;SDS011;9211;48.818;9.312;2023-04-06T04:52:19;18.23;;;10.88;;
18172;SDS011;9211;48.818;9.312;2023-04-06T04:55:04;18.27;;;10.77;;
18172;SDS011;9211;48.818;9.312;2023-04-06T04:57:31;19.30;;;10.40;;
18172;SDS011;9211;48.818;9.312;2023-04-06T04:59:58;20.60;;;10.63;;
18172;SDS011;9211;48.818;9.312;2023-04-06T05:02:28;18.13;;;10.75;;
18172;SDS011;9211;48.818;9.312;2023-04-06T05:05:18;17.52;;;10.70;;
18172;SDS011;9211;48.818;9.312;2023-04-06T05:07:45;19.83;;;10.23;;
18172;SDS011;9211;48.818;9.312;2023-04-06T05:10:37;20.40;;;11.00;;
18172;SDS011;9211;48.818;9.312;2023-04-06T05:13:04;18.95;;;10.63;;
18172;SDS011;9211;48.818;9.312;2023-04-06T05:15:31;20.80;;;10.73;;
18172;SDS011;9211;48.818;9.312;2023-04-06T05:18:06;19.63;;;10.80;;
18172;SDS011;9211;48.818;9.312;2023-04-06T05:20:34;21.35;;;10.68;;
18172;SDS011;9211;48.818;9.312;2023-04-06T05:23:02;19.80;;;10.95;;
18172;SDS011;9211;48.818;9.312;2023-04-06T05:25:30;22.13;;;11.18;;
18172;SDS011;9211;48.818;9.312;2023-04-06T05:28:08;17.45;;;10.88;;
18172;SDS011;9211;48.818;9.312;2023-04-06T05:30:38;20.60;;;11.67;;
18172;SDS011;9211;48.818;9.312;2023-04-06T05:33:07;20.38;;;11.40;;
18172;SDS011;9211;48.818;9.312;2023-04-06T05:35:52;19.42;;;10.90;;
18172;SDS011;9211;48.818;9.312;2023-04-06T05:38:19;21.17;;;10.93;;
18172;SDS011;9211;48.818;9.312;2023-04-06T05:40:46;19.63;;;11.07;;
18172;SDS011;9211;48.818;9.312;2023-04-06T05:43:18;18.83;;;11.13;;
18172;SDS011;9211;48.818;9.312;2023-04-06T05:45:51;17.73;;;10.52;;
18172;SDS011;9211;48.818;9.312;2023-04-06T05:48:19;18.13;;;11.00;;
18172;SDS011;9211;48.818;9.312;2023-04-06T05:50:47;20.47;;;10.73;;
18172;SDS011;9211;48.818;9.312;2023-04-06T05:53:17;21.98;;;11.10;;
18172;SDS011;9211;48.818;9.312;2023-04-06T05:55:51;19.77;;;11.07;;
18172;SDS011;9211;48.818;9.312;2023-04-06T05:58:21;18.88;;;10.98;;
18172;SDS011;9211;48.818;9.312;2023-04-06T06:00:55;17.15;;;10.77;;
18172;SDS011;9211;48.818;9.312;2023-04-06T06:03:24;16.83;;;10.88;;
18172;SDS011;9211;48.818;9.312;2023-04-06T06:05:58;20.02;;;11.32;;
18172;SDS011;9211;48.818;9.312;2023-04-06T06:08:30;18.67;;;11.10;;
18172;SDS011;9211;48.818;9.312;2023-04-06T06:11:01;24.08;;;12.05;;
18172;SDS011;9211;48.818;9.312;2023-04-06T06:13:31;18.50;;;11.13;;
18172;SDS011;9211;48.818;9.312;2023-04-06T06:15:59;21.65;;;11.80;;
18172;SDS011;9211;48.818;9.312;2023-04-06T06:18:31;20.25;;;11.40;;
18172;SDS011;9211;48.818;9.312;2023-04-06T06:21:03;22.60;;;11.35;;
18172;SDS011;9211;48.818;9.312;2023-04-06T06:23:30;20.08;;;11.15;;
18172;SDS011;9211;48.818;9.312;2023-04-06T06:25:57;23.30;;;12.05;;
18172;SDS011;9211;48.818;9.312;2023-04-06T06:28:26;20.33;;;11.80;;
18172;SDS011;9211;48.818;9.312;2023-04-06T06:30:55;19.02;;;11.15;;
18172;SDS011;9211;48.818;9.312;2023-04-06T06:33:24;19.52;;;11.77;;
18172;SDS011;9211;48.818;9.312;2023-04-06T06:35:53;21.38;;;11.43;;
18172;SDS011;9211;48.818;9.312;2023-04-06T06:38:20;19.27;;;11.33;;
18172;SDS011;9211;48.818;9.312;2023-04-06T06:40:48;18.58;;;10.98;;
18172;SDS011;9211;48.818;9.312;2023-04-06T06:43:15;18.65;;;11.10;;
18172;SDS011;9211;48.818;9.312;2023-04-06T06:45:50;18.60;;;11.55;;
18172;SDS011;9211;48.818;9.312;2023-04-06T06:48:19;18.48;;;11.45;;
18172;SDS011;9211;48.818;9.312;2023-04-06T06:50:47;19.17;;;11.25;;
18172;SDS011;9211;48.818;9.312;2023-04-06T06:53:14;19.85;;;11.75;;
18172;SDS011;9211;48.818;9.312;2023-04-06T06:55:41;22.57;;;11.60;;
18172;SDS011;9211;48.818;9.312;2023-04-06T06:58:09;19.27;;;11.32;;
18172;SDS011;9211;48.818;9.312;2023-04-06T07:00:36;19.65;;;11.88;;
18172;SDS011;9211;48.818;9.312;2023-04-06T07:03:04;18.23;;;11.57;;
18172;SDS011;9211;48.818;9.312;2023-04-06T07:05:32;19.17;;;10.82;;
18172;SDS011;9211;48.818;9.312;2023-04-06T07:07:59;16.90;;;11.15;;
18172;SDS011;9211;48.818;9.312;2023-04-06T07:10:26;18.52;;;11.65;;
18172;SDS011;9211;48.818;9.312;2023-04-06T07:12:53;17.27;;;11.05;;
18172;SDS011;9211;48.818;9.312;2023-04-06T07:15:21;17.05;;;11.18;;
18172;SDS011;9211;48.818;9.312;2023-04-06T07:17:50;24.53;;;13.80;;
18172;SDS011;9211;48.818;9.312;2023-04-06T07:20:17;28.20;;;15.57;;
18172;SDS011;9211;48.818;9.312;2023-04-06T07:22:47;21.43;;;12.93;;
18172;SDS011;9211;48.818;9.312;2023-04-06T07:25:14;19.67;;;11.95;;
18172;SDS011;9211;48.818;9.312;2023-04-06T07:27:41;16.75;;;11.27;;
18172;SDS011;9211;48.818;9.312;2023-04-06T07:30:10;18.38;;;11.05;;
18172;SDS011;9211;48.818;9.312;2023-04-06T07:32:37;17.13;;;11.17;;
18172;SDS011;9211;48.818;9.312;2023-04-06T07:35:05;20.08;;;11.23;;
18172;SDS011;9211;48.818;9.312;2023-04-06T07:37:32;17.53;;;10.97;;
18172;SDS011;9211;48.818;9.312;2023-04-06T07:40:01;16.23;;;10.77;;
18172;SDS011;9211;48.818;9.312;2023-04-06T07:42:29;18.00;;;11.13;;
18172;SDS011;9211;48.818;9.312;2023-04-06T07:44:58;19.77;;;11.50;;
18172;SDS011;9211;48.818;9.312;2023-04-06T07:47:25;16.63;;;11.00;;
18172;SDS011;9211;48.818;9.312;2023-04-06T07:49:54;20.63;;;11.88;;
18172;SDS011;9211;48.818;9.312;2023-04-06T07:52:22;22.08;;;12.43;;
18172;SDS011;9211;48.818;9.312;2023-04-06T07:54:49;20.70;;;11.77;;
18172;SDS011;9211;48.818;9.312;2023-04-06T07:57:18;18.30;;;10.95;;
18172;SDS011;9211;48.818;9.312;2023-04-06T07:59:46;18.98;;;11.05;;
18172;SDS011;9211;48.818;9.312;2023-04-06T08:02:13;19.27;;;11.20;;
18172;SDS011;9211;48.818;9.312;2023-04-06T08:04:40;17.98;;;10.88;;
18172;SDS011;9211;48.818;9.312;2023-04-06T08:07:07;19.60;;;11.38;;
18172;SDS011;9211;48.818;9.312;2023-04-06T08:09:34;17.75;;;11.07;;
18172;SDS011;9211;48.818;9.312;2023-04-06T08:12:01;16.40;;;10.30;;
18172;SDS011;9211;48.818;9.312;2023-04-06T08:14:29;16.63;;;10.88;;
18172;SDS011;9211;48.818;9.312;2023-04-06T08:16:57;16.50;;;10.48;;
18172;SDS011;9211;48.818;9.312;2023-04-06T08:19:24;18.43;;;10.80;;
18172;SDS011;9211;48.818;9.312;2023-04-06T08:21:51;15.98;;;10.77;;
18172;SDS011;9211;48.818;9.312;2023-04-06T08:24:18;18.73;;;10.30;;
18172;SDS011;9211;48.818;9.312;2023-04-06T08:26:45;16.50;;;10.43;;
18172;SDS011;9211;48.818;9.312;2023-04-06T08:29:12;19.58;;;10.70;;
18172;SDS011;9211;48.818;9.312;2023-04-06T08:31:40;16.03;;;10.40;;
18172;SDS011;9211;48.818;9.312;2023-04-06T08:34:07;14.85;;;9.20;;
18172;SDS011;9211;48.818;9.312;2023-04-06T08:36:35;17.95;;;10.30;;
18172;SDS011;9211;48.818;9.312;2023-04-06T08:39:03;18.65;;;11.10;;
18172;SDS011;9211;48.818;9.312;2023-04-06T08:41:30;20.13;;;9.82;;
18172;SDS011;9211;48.818;9.312;2023-04-06T08:43:58;17.25;;;10.05;;
18172;SDS011;9211;48.818;9.312;2023-04-06T08:46:26;14.90;;;9.70;;
18172;SDS011;9211;48.818;9.312;2023-04-06T08:48:57;16.23;;;10.38;;
18172;SDS011;9211;48.818;9.312;2023-04-06T08:51:24;16.05;;;9.70;;
18172;SDS011;9211;48.818;9.312;2023-04-06T08:53:57;17.80;;;11.05;;
18172;SDS011;9211;48.818;9.312;2023-04-06T08:56:29;20.25;;;10.80;;
18172;SDS011;9211;48.818;9.312;2023-04-06T08:58:56;18.05;;;10.40;;
18172;SDS011;9211;48.818;9.312;2023-04-06T09:01:24;17.70;;;10.47;;
18172;SDS011;9211;48.818;9.312;2023-04-06T09:03:54;20.37;;;10.30;;
18172;SDS011;9211;48.818;9.312;2023-04-06T09:06:25;17.77;;;10.35;;
18172;SDS011;9211;48.818;9.312;2023-04-06T09:08:53;16.08;;;9.68;;
18172;SDS011;9211;48.818;9.312;2023-04-06T09:11:20;15.73;;;9.80;;
18172;SDS011;9211;48.818;9.312;2023-04-06T09:13:48;18.13;;;9.93;;
18172;SDS011;9211;48.818;9.312;2023-04-06T09:16:17;16.65;;;10.32;;
18172;SDS011;9211;48.818;9.312;2023-04-06T09:18:44;16.27;;;9.82;;
18172;SDS011;9211;48.818;9.312;2023-04-06T09:21:16;17.47;;;10.13;;
18172;SDS011;9211;48.818;9.312;2023-04-06T09:23:44;19.27;;;10.63;;
18172;SDS011;9211;48.818;9.312;2023-04-06T09:26:14;15.23;;;9.65;;
18172;SDS011;9211;48.818;9.312;2023-04-06T09:28:42;16.58;;;9.75;;
18172;SDS011;9211;48.818;9.312;2023-04-06T09:31:10;16.85;;;10.25;;
18172;SDS011;9211;48.818;9.312;2023-04-06T09:33:38;18.80;;;9.90;;
18172;SDS011;9211;48.818;9.312;2023-04-06T09:36:07;16.73;;;10.07;;
18172;SDS011;9211;48.818;9.312;2023-04-06T09:38:37;15.73;;;9.63;;
18172;SDS011;9211;48.818;9.312;2023-04-06T09:41:05;17.02;;;10.10;;
18172;SDS011;9211;48.818;9.312;2023-04-06T09:43:32;17.83;;;9.73;;
18172;SDS011;9211;48.818;9.312;2023-04-06T09:46:00;17.40;;;9.93;;
18172;SDS011;9211;48.818;9.312;2023-04-06T09:48:29;14.80;;;9.38;;
18172;SDS011;9211;48.818;9.312;2023-04-06T09:50:59;13.90;;;8.70;;
18172;SDS011;9211;48.818;9.312;2023-04-06T09:53:30;15.48;;;9.85;;
18172;SDS011;9211;48.818;9.312;2023-04-06T09:56:03;15.05;;;9.50;;
18172;SDS011;9211;48.818;9.312;2023-04-06T09:58:37;14.35;;;8.30;;
18172;SDS011;9211;48.818;9.312;2023-04-06T10:01:09;15.75;;;9.90;;
18172;SDS011;9211;48.818;9.312;2023-04-06T10:03:43;16.63;;;9.63;;
18172;SDS011;9211;48.818;9.312;2023-04-06T10:06:16;16.13;;;8.95;;
18172;SDS011;9211;48.818;9.312;2023-04-06T10:08:50;14.07;;;9.38;;
18172;SDS011;9211;48.818;9.312;2023-04-06T10:11:21;16.08;;;9.55;;
18172;SDS011;9211;48.818;9.312;2023-04-06T10:13:48;17.08;;;9.65;;
18172;SDS011;9211;48.818;9.312;2023-04-06T10:16:16;15.60;;;10.27;;
18172;SDS011;9211;48.818;9.312;2023-04-06T10:18:45;15.15;;;10.15;;
18172;SDS011;9211;48.818;9.312;2023-04-06T10:21:18;15.27;;;9.20;;
18172;SDS011;9211;48.818;9.312;2023-04-06T10:23:48;14.35;;;8.45;;
18172;SDS011;9211;48.818;9.312;2023-04-06T10:26:20;13.77;;;9.05;;
18172;SDS011;9211;48.818;9.312;2023-04-06T10:28:48;16.80;;;9.25;;
18172;SDS011;9211;48.818;9.312;2023-04-06T10:31:23;14.40;;;8.35;;
18172;SDS011;9211;48.818;9.312;2023-04-06T10:33:54;14.68;;;8.30;;
18172;SDS011;9211;48.818;9.312;2023-04-06T10:36:22;12.65;;;7.93;;
18172;SDS011;9211;48.818;9.312;2023-04-06T10:38:55;14.07;;;7.78;;
18172;SDS011;9211;48.818;9.312;2023-04-06T10:41:24;13.97;;;8.70;;
18172;SDS011;9211;48.818;9.312;2023-04-06T10:43:58;13.10;;;8.05;;
18172;SDS011;9211;48.818;9.312;2023-04-06T10:46:26;14.63;;;8.60;;
18172;SDS011;9211;48.818;9.312;2023-04-06T10:48:55;12.63;;;8.30;;
18172;SDS011;9211;48.818;9.312;2023-04-06T10:51:38;15.10;;;8.18;;
18172;SDS011;9211;48.818;9.312;2023-04-06T10:54:05;12.60;;;7.88;;
18172;SDS011;9211;48.818;9.312;2023-04-06T10:56:36;15.63;;;9.15;;
18172;SDS011;9211;48.818;9.312;2023-04-06T10:59:05;14.52;;;9.30;;
18172;SDS011;9211;48.818;9.312;2023-04-06T11:01:33;15.75;;;9.73;;
18172;SDS011;9211;48.818;9.312;2023-04-06T11:04:00;15.10;;;9.23;;
18172;SDS011;9211;48.818;9.312;2023-04-06T11:06:29;14.25;;;9.07;;
18172;SDS011;9211;48.818;9.312;2023-04-06T11:08:57;13.88;;;8.55;;
18172;SDS011;9211;48.818;9.312;2023-04-06T11:11:25;13.38;;;8.98;;
18172;SDS011;9211;48.818;9.312;2023-04-06T11:13:54;13.48;;;8.13;;
18172;SDS011;9211;48.818;9.312;2023-04-06T11:16:24;10.65;;;6.93;;
18172;SDS011;9211;48.818;9.312;2023-04-06T11:18:55;10.00;;;6.47;;
18172;SDS011;9211;48.818;9.312;2023-04-06T11:21:33;12.40;;;7.65;;
18172;SDS011;9211;48.818;9.312;2023-04-06T11:24:09;12.52;;;7.45;;
18172;SDS011;9211;48.818;9.312;2023-04-06T11:26:40;11.10;;;7.40;;
18172;SDS011;9211;48.818;9.312;2023-04-06T11:29:11;9.60;;;6.10;;
18172;SDS011;9211;48.818;9.312;2023-04-06T11:31:42;10.82;;;6.30;;
18172;SDS011;9211;48.818;9.312;2023-04-06T11:34:12;9.35;;;5.95;;
18172;SDS011;9211;48.818;9.312;2023-04-06T11:36:40;9.32;;;6.20;;
18172;SDS011;9211;48.818;9.312;2023-04-06T11:39:08;10.30;;;6.22;;
18172;SDS011;9211;48.818;9.312;2023-04-06T11:41:36;10.43;;;6.45;;
18172;SDS011;9211;48.818;9.312;2023-04-06T11:44:03;11.65;;;6.72;;
18172;SDS011;9211;48.818;9.312;2023-04-06T11:46:33;12.00;;;5.97;;
18172;SDS011;9211;48.818;9.312;2023-04-06T11:49:00;8.15;;;5.47;;
18172;SDS011;9211;48.818;9.312;2023-04-06T11:51:28;11.90;;;5.32;;
18172;SDS011;9211;48.818;9.312;2023-04-06T11:53:55;8.23;;;5.13;;
18172;SDS011;9211;48.818;9.312;2023-04-06T11:56:23;11.95;;;6.55;;
18172;SDS011;9211;48.818;9.312;2023-04-06T11:58:51;9.80;;;5.60;;
18172;SDS011;9211;48.818;9.312;2023-04-06T12:01:20;10.93;;;5.53;;
18172;SDS011;9211;48.818;9.312;2023-04-06T12:03:48;8.20;;;5.40;;
18172;SDS011;9211;48.818;9.312;2023-04-06T12:06:16;8.70;;;5.30;;
18172;SDS011;9211;48.818;9.312;2023-04-06T12:08:44;8.75;;;5.10;;
18172;SDS011;9211;48.818;9.312;2023-04-06T12:11:11;7.47;;;5.28;;
18172;SDS011;9211;48.818;9.312;2023-04-06T12:13:39;8.35;;;5.68;;
18172;SDS011;9211;48.818;9.312;2023-04-06T12:16:06;7.72;;;5.10;;
18172;SDS011;9211;48.818;9.312;2023-04-06T12:18:33;10.45;;;6.00;;
18172;SDS011;9211;48.818;9.312;2023-04-06T12:21:02;7.72;;;5.55;;
18172;SDS011;9211;48.818;9.312;2023-04-06T12:23:30;8.98;;;5.65;;
18172;SDS011;9211;48.818;9.312;2023-04-06T12:25:57;8.10;;;4.85;;
18172;SDS011;9211;48.818;9.312;2023-04-06T12:28:24;7.55;;;5.22;;
18172;SDS011;9211;48.818;9.312;2023-04-06T12:30:52;8.35;;;5.40;;
18172;SDS011;9211;48.818;9.312;2023-04-06T12:33:19;9.02;;;5.10;;
18172;SDS011;9211;48.818;9.312;2023-04-06T12:35:46;8.52;;;5.80;;
18172;SDS011;9211;48.818;9.312;2023-04-06T12:38:15;8.20;;;4.97;;
18172;SDS011;9211;48.818;9.312;2023-04-06T12:40:42;7.68;;;5.22;;
18172;SDS011;9211;48.818;9.312;2023-04-06T12:43:09;7.30;;;5.05;;
18172;SDS011;9211;48.818;9.312;2023-04-06T12:45:38;7.40;;;4.57;;
18172;SDS011;9211;48.818;9.312;2023-04-06T12:48:05;8.55;;;4.95;;
18172;SDS011;9211;48.818;9.312;2023-04-06T12:50:33;8.25;;;5.80;;
18172;SDS011;9211;48.818;9.312;2023-04-06T12:53:00;9.93;;;6.03;;
18172;SDS011;9211;48.818;9.312;2023-04-06T12:55:30;9.80;;;6.03;;
18172;SDS011;9211;48.818;9.312;2023-04-06T12:58:01;8.13;;;5.27;;
18172;SDS011;9211;48.818;9.312;2023-04-06T13:00:28;7.75;;;5.30;;
18172;SDS011;9211;48.818;9.312;2023-04-06T13:02:56;8.23;;;5.20;;
18172;SDS011;9211;48.818;9.312;2023-04-06T13:05:23;7.03;;;5.00;;
18172;SDS011;9211;48.818;9.312;2023-04-06T13:07:50;8.85;;;5.10;;
18172;SDS011;9211;48.818;9.312;2023-04-06T13:10:17;8.85;;;5.47;;
18172;SDS011;9211;48.818;9.312;2023-04-06T13:12:46;7.57;;;5.15;;
18172;SDS011;9211;48.818;9.312;2023-04-06T13:15:13;8.40;;;4.70;;
18172;SDS011;9211;48.818;9.312;2023-04-06T13:17:40;8.80;;;5.47;;
18172;SDS011;9211;48.818;9.312;2023-04-06T13:20:07;8.40;;;5.50;;
18172;SDS011;9211;48.818;9.312;2023-04-06T13:22:35;9.27;;;5.65;;
18172;SDS011;9211;48.818;9.312;2023-04-06T13:25:02;8.52;;;5.00;;
18172;SDS011;9211;48.818;9.312;2023-04-06T13:27:30;7.78;;;5.18;;
18172;SDS011;9211;48.818;9.312;2023-04-06T13:30:00;9.93;;;5.50;;
18172;SDS011;9211;48.818;9.312;2023-04-06T13:32:28;7.30;;;4.70;;
18172;SDS011;9211;48.818;9.312;2023-04-06T13:34:56;9.15;;;5.53;;
18172;SDS011;9211;48.818;9.312;2023-04-06T13:37:23;7.53;;;4.78;;
18172;SDS011;9211;48.818;9.312;2023-04-06T13:39:50;9.15;;;5.13;;
18172;SDS011;9211;48.818;9.312;2023-04-06T13:42:17;9.35;;;5.20;;
18172;SDS011;9211;48.818;9.312;2023-04-06T13:44:44;7.55;;;5.07;;
18172;SDS011;9211;48.818;9.312;2023-04-06T13:47:14;8.35;;;5.20;;
18172;SDS011;9211;48.818;9.312;2023-04-06T13:49:41;8.98;;;5.13;;
18172;SDS011;9211;48.818;9.312;2023-04-06T13:52:08;8.50;;;5.28;;
18172;SDS011;9211;48.818;9.312;2023-04-06T13:54:36;9.17;;;5.37;;
18172;SDS011;9211;48.818;9.312;2023-04-06T13:57:03;10.47;;;5.60;;
18172;SDS011;9211;48.818;9.312;2023-04-06T13:59:33;7.70;;;4.82;;
18172;SDS011;9211;48.818;9.312;2023-04-06T14:02:01;8.50;;;5.18;;
18172;SDS011;9211;48.818;9.312;2023-04-06T14:04:29;7.57;;;4.70;;
18172;SDS011;9211;48.818;9.312;2023-04-06T14:06:58;7.30;;;5.20;;
18172;SDS011;9211;48.818;9.312;2023-04-06T14:09:26;7.13;;;4.70;;
18172;SDS011;9211;48.818;9.312;2023-04-06T14:11:53;8.00;;;4.77;;
18172;SDS011;9211;48.818;9.312;2023-04-06T14:14:20;8.52;;;5.10;;
18172;SDS011;9211;48.818;9.312;2023-04-06T14:16:48;8.27;;;5.00;;
18172;SDS011;9211;48.818;9.312;2023-04-06T14:19:15;7.57;;;4.78;;
18172;SDS011;9211;48.818;9.312;2023-04-06T14:21:45;7.53;;;4.70;;
18172;SDS011;9211;48.818;9.312;2023-04-06T14:24:12;8.85;;;5.05;;
18172;SDS011;9211;48.818;9.312;2023-04-06T14:26:41;7.65;;;5.10;;
18172;SDS011;9211;48.818;9.312;2023-04-06T14:29:08;9.20;;;5.00;;
18172;SDS011;9211;48.818;9.312;2023-04-06T14:31:35;8.43;;;5.10;;
18172;SDS011;9211;48.818;9.312;2023-04-06T14:34:02;8.38;;;5.10;;
18172;SDS011;9211;48.818;9.312;2023-04-06T14:36:31;7.65;;;4.75;;
18172;SDS011;9211;48.818;9.312;2023-04-06T14:39:03;7.07;;;4.63;;
18172;SDS011;9211;48.818;9.312;2023-04-06T14:41:31;7.55;;;4.88;;
18172;SDS011;9211;48.818;9.312;2023-04-06T14:43:58;8.18;;;4.82;;
18172;SDS011;9211;48.818;9.312;2023-04-06T14:46:25;10.02;;;4.68;;
18172;SDS011;9211;48.818;9.312;2023-04-06T14:48:53;9.00;;;5.20;;
18172;SDS011;9211;48.818;9.312;2023-04-06T14:51:21;7.63;;;4.85;;
18172;SDS011;9211;48.818;9.312;2023-04-06T14:53:48;7.28;;;4.68;;
18172;SDS011;9211;48.818;9.312;2023-04-06T14:56:19;8.13;;;4.90;;
18172;SDS011;9211;48.818;9.312;2023-04-06T14:58:47;7.60;;;4.50;;